| time (UTC) | temp F | wind direction | speed MPH | gust MPH | rain 1hr in | rain 24hr in | rain mn in | humidity % | barometer mb |
| 20260507163037 | 53 | 330 | 3.0 | 17.0 | 0.00 | 0.00 | 0.00 | 40 | 1014.2 |
| 20260507161534 | 54 | 341 | 4.0 | 12.0 | 0.00 | 0.00 | 0.00 | 44 | 1014.3 |
| 20260507160037 | 53 | 49 | 8.0 | 12.0 | 0.00 | 0.00 | 0.00 | 43 | 1014.3 |
| 20260507154530 | 52 | 355 | 4.0 | 13.0 | 0.00 | 0.00 | 0.00 | 45 | 1014.2 |
| 20260507153032 | 51 | 74 | 6.0 | 14.0 | 0.00 | 0.00 | 0.00 | 45 | 1014.3 |
| 20260507151523 | 51 | 50 | 10.0 | 15.0 | 0.00 | 0.00 | 0.00 | 44 | 1014.4 |
| 20260507150021 | 50 | 32 | 8.0 | 14.0 | 0.00 | 0.00 | 0.00 | 45 | 1014.4 |
| 20260507144519 | 49 | 20 | 9.0 | 15.0 | 0.00 | 0.00 | 0.00 | 48 | 1014.4 |
| 20260507143016 | 48 | 19 | 9.0 | 15.0 | 0.00 | 0.00 | 0.00 | 49 | 1014.4 |
| 20260507141510 | 46 | 55 | 10.0 | 15.0 | 0.00 | 0.00 | 0.00 | 55 | 1014.5 |
| 20260507140006 | 44 | 32 | 9.0 | 14.0 | 0.00 | 0.00 | 0.00 | 57 | 1014.9 |
| 20260507134503 | 42 | 47 | 7.0 | 11.0 | 0.00 | 0.00 | 0.00 | 59 | 1015.2 |
| 20260507133003 | 43 | 331 | 5.0 | 9.0 | 0.00 | 0.00 | 0.00 | 59 | 1015.5 |
| 20260507131604 | 44 | 36 | 6.0 | 9.0 | 0.00 | 0.00 | 0.00 | 59 | 1014.8 |
| 20260507130057 | 42 | 38 | 2.0 | 5.0 | 0.00 | 0.00 | 0.00 | 61 | 1015.1 |
| 20260507124553 | 41 | 120 | 2.0 | 7.0 | 0.00 | 0.00 | 0.00 | 63 | 1014.8 |
| 20260507123049 | 39 | 130 | 5.0 | 8.0 | 0.00 | 0.00 | 0.00 | 65 | 1014.6 |
| 20260507121545 | 38 | 125 | 6.0 | 8.0 | 0.00 | 0.00 | 0.00 | 64 | 1014.8 |
| 20260507120041 | 38 | 98 | 5.0 | 10.0 | 0.00 | 0.00 | 0.00 | 64 | 1015.0 |
| 20260507114536 | 36 | 56 | 4.0 | 9.0 | 0.00 | 0.00 | 0.00 | 69 | 1015.2 |
| 20260507113039 | 35 | 66 | 4.0 | 6.0 | 0.00 | 0.00 | 0.00 | 69 | 1015.1 |
| 20260507111530 | 34 | 94 | 5.0 | 7.0 | 0.00 | 0.00 | 0.00 | 70 | 1014.9 |
| 20260507110029 | 33 | 105 | 3.0 | 6.0 | 0.00 | 0.00 | 0.00 | 71 | 1015.0 |
| 20260507104528 | 33 | 110 | 3.0 | 7.0 | 0.00 | 0.00 | 0.00 | 69 | 1015.2 |
| 20260507103026 | 34 | 106 | 4.0 | 7.0 | 0.00 | 0.00 | 0.00 | 67 | 1015.5 |
| 20260507101536 | 34 | 102 | 5.0 | 7.0 | 0.00 | 0.00 | 0.00 | 68 | 1015.6 |
| 20260507100029 | 33 | 76 | 3.0 | 4.0 | 0.00 | 0.00 | 0.00 | 68 | 1016.0 |
| 20260507094618 | 34 | 76 | 2.0 | 4.0 | 0.00 | 0.00 | 0.00 | 68 | 1016.1 |
| 20260507093020 | 33 | 17 | 2.0 | 3.0 | 0.00 | 0.00 | 0.00 | 68 | 1016.5 |
| 20260507091533 | 32 | 17 | 2.0 | 4.0 | 0.00 | 0.00 | 0.00 | 70 | 1016.7 |
| 20260507090015 | 33 | 17 | 0.0 | 2.0 | 0.00 | 0.00 | 0.00 | 72 | 1016.7 |
| 20260507084512 | 34 | 17 | 1.0 | 3.0 | 0.00 | 0.00 | 0.00 | 69 | 1016.8 |
| 20260507083014 | 35 | 17 | 0.0 | 2.0 | 0.00 | 0.00 | 0.00 | 69 | 1016.9 |
| 20260507081509 | 36 | 17 | 0.0 | 2.0 | 0.00 | 0.00 | 0.00 | 66 | 1017.0 |
| 20260507080008 | 35 | 17 | 2.0 | 3.0 | 0.00 | 0.00 | 0.00 | 67 | 1017.0 |
| 20260507074510 | 35 | 17 | 1.0 | 3.0 | 0.00 | 0.00 | 0.00 | 70 | 1017.1 |
| 20260507073005 | 35 | 17 | 0.0 | 1.0 | 0.00 | 0.00 | 0.00 | 67 | 1017.1 |
| 20260507071507 | 35 | 17 | 1.0 | 2.0 | 0.00 | 0.00 | 0.00 | 66 | 1017.1 |
| 20260507070004 | 34 | 17 | 0.0 | 2.0 | 0.00 | 0.00 | 0.00 | 68 | 1017.3 |
| 20260507064501 | 34 | 17 | 0.0 | 2.0 | 0.00 | 0.00 | 0.00 | 65 | 1017.3 |
| 20260507063103 | 35 | 17 | 1.0 | 2.0 | 0.00 | 0.00 | 0.00 | 65 | 1017.1 |
| 20260507061559 | 35 | 17 | 2.0 | 3.0 | 0.00 | 0.00 | 0.00 | 65 | 1017.2 |
| 20260507060057 | 32 | 15 | 1.0 | 3.0 | 0.00 | 0.00 | 0.00 | 70 | 1017.2 |
| 20260507054606 | 31 | 15 | 0.0 | 3.0 | 0.00 | 0.00 | 0.00 | 70 | 1017.4 |
| 20260507053054 | 32 | 15 | 0.0 | 0.0 | 0.00 | 0.00 | 0.00 | 68 | 1017.5 |
| 20260507051549 | 33 | 15 | 0.0 | 2.0 | 0.00 | 0.00 | 0.00 | 64 | 1017.4 |
| 20260507050045 | 34 | 15 | 2.0 | 4.0 | 0.00 | 0.00 | 0.00 | 64 | 1017.3 |
| 20260507044547 | 33 | 5 | 1.0 | 2.0 | 0.00 | 0.00 | 0.00 | 67 | 1017.4 |
| 20260507043043 | 32 | 5 | 0.0 | 3.0 | 0.00 | 0.00 | 0.00 | 69 | 1017.6 |
| 20260507041542 | 32 | 5 | 1.0 | 4.0 | 0.00 | 0.00 | 0.00 | 70 | 1017.8 |
| 20260507040043 | 33 | 5 | 2.0 | 4.0 | 0.00 | 0.00 | 0.00 | 68 | 1018.1 |
| 20260507034546 | 33 | 5 | 1.0 | 3.0 | 0.00 | 0.00 | 0.00 | 68 | 1018.3 |
| 20260507033040 | 33 | 5 | 0.0 | 1.0 | 0.00 | 0.00 | 0.00 | 68 | 1018.4 |
| 20260507031542 | 35 | 5 | 0.0 | 3.0 | 0.00 | 0.00 | 0.00 | 64 | 1018.3 |
| 20260507030042 | 37 | 5 | 2.0 | 3.0 | 0.00 | 0.00 | 0.00 | 60 | 1018.4 |
| 20260507024538 | 38 | 5 | 1.0 | 3.0 | 0.00 | 0.00 | 0.00 | 58 | 1018.3 |
| 20260507023038 | 39 | 5 | 1.0 | 3.0 | 0.00 | 0.00 | 0.00 | 56 | 1018.3 |
| 20260507021539 | 38 | 5 | 2.0 | 4.0 | 0.00 | 0.00 | 0.00 | 57 | 1018.1 |
| 20260507020016 | 40 | 5 | 2.0 | 4.0 | 0.00 | 0.00 | 0.00 | 53 | 1018.0 |
| 20260507014515 | 42 | 5 | 2.0 | 4.0 | 0.00 | 0.00 | 0.00 | 50 | 1017.9 |
| 20260507013014 | 43 | 5 | 2.0 | 5.0 | 0.00 | 0.00 | 0.00 | 48 | 1017.9 |
| 20260507011514 | 45 | 360 | 4.0 | 9.0 | 0.00 | 0.00 | 0.00 | 46 | 1017.9 |
| 20260507010014 | 46 | 332 | 3.0 | 10.0 | 0.00 | 0.00 | 0.00 | 45 | 1017.9 |
| 20260507004513 | 47 | 327 | 4.0 | 9.0 | 0.00 | 0.00 | 0.00 | 43 | 1017.9 |
| 20260507003011 | 47 | 329 | 5.0 | 10.0 | 0.00 | 0.00 | 0.00 | 43 | 1017.9 |
| 20260507001514 | 47 | 304 | 7.0 | 13.0 | 0.00 | 0.00 | 0.00 | 42 | 1017.9 |
| 20260507000011 | 48 | 309 | 9.0 | 21.0 | 0.00 | 0.00 | 0.00 | 43 | 1017.9 |
| 20260506234513 | 47 | 305 | 11.0 | 20.0 | 0.00 | 0.00 | 0.00 | 43 | 1017.9 |
| 20260506233009 | 48 | 314 | 7.0 | 16.0 | 0.00 | 0.00 | 0.00 | 42 | 1018.0 |
| 20260506231511 | 48 | 324 | 11.0 | 17.0 | 0.00 | 0.00 | 0.00 | 43 | 1018.0 |
| 20260506230007 | 48 | 315 | 9.0 | 17.0 | 0.00 | 0.00 | 0.00 | 42 | 1018.0 |
| 20260506224504 | 48 | 294 | 10.0 | 18.0 | 0.00 | 0.00 | 0.00 | 42 | 1017.9 |
| 20260506223004 | 47 | 302 | 8.0 | 19.0 | 0.00 | 0.00 | 0.00 | 43 | 1018.1 |
| 20260506221606 | 48 | 294 | 12.0 | 19.0 | 0.00 | 0.00 | 0.00 | 44 | 1018.0 |
| 20260506220002 | 46 | 327 | 10.0 | 18.0 | 0.00 | 0.00 | 0.00 | 45 | 1018.2 |
| 20260506214502 | 47 | 330 | 9.0 | 17.0 | 0.00 | 0.00 | 0.00 | 44 | 1018.3 |
| 20260506213100 | 47 | 318 | 8.0 | 23.0 | 0.00 | 0.00 | 0.00 | 45 | 1018.4 |
| 20260506213000 | 47 | 309 | 10.0 | 23.0 | 0.00 | 0.00 | 0.00 | 44 | 1018.4 |
| 20260506211557 | 47 | 298 | 11.0 | 18.0 | 0.00 | 0.00 | 0.00 | 45 | 1018.4 |
| 20260506210056 | 46 | 346 | 10.0 | 20.0 | 0.00 | 0.00 | 0.00 | 46 | 1018.5 |
| 20260506204554 | 45 | 309 | 14.0 | 19.0 | 0.00 | 0.00 | 0.00 | 46 | 1018.8 |
| 20260506203054 | 45 | 308 | 12.0 | 23.0 | 0.00 | 0.00 | 0.00 | 47 | 1018.9 |
| 20260506201607 | 45 | 308 | 12.0 | 19.0 | 0.00 | 0.00 | 0.00 | 47 | 1018.9 |
| 20260506200050 | 45 | 310 | 14.0 | 22.0 | 0.00 | 0.00 | 0.00 | 47 | 1019.0 |
| 20260506194552 | 45 | 300 | 11.0 | 21.0 | 0.00 | 0.00 | 0.00 | 47 | 1019.1 |
| 20260506193052 | 44 | 311 | 14.0 | 22.0 | 0.00 | 0.00 | 0.00 | 45 | 1019.1 |
| 20260506191547 | 45 | 291 | 13.0 | 19.0 | 0.00 | 0.00 | 0.00 | 50 | 1019.1 |
| 20260506190046 | 44 | 322 | 9.0 | 21.0 | 0.00 | 0.00 | 0.00 | 48 | 1019.1 |
| 20260506184550 | 44 | 5 | 11.0 | 24.0 | 0.00 | 0.00 | 0.00 | 47 | 1019.0 |
| 20260506183044 | 44 | 292 | 14.0 | 20.0 | 0.00 | 0.00 | 0.00 | 49 | 1019.1 |
| 20260506181543 | 44 | 317 | 11.0 | 18.0 | 0.00 | 0.00 | 0.00 | 49 | 1019.2 |
| 20260506180041 | 43 | 299 | 10.0 | 21.0 | 0.00 | 0.00 | 0.00 | 49 | 1019.3 |
| 20260506174641 | 43 | 291 | 9.0 | 14.0 | 0.00 | 0.00 | 0.00 | 48 | 1019.1 |
| 20260506173051 | 43 | 311 | 9.0 | 15.0 | 0.00 | 0.00 | 0.00 | 48 | 1019.2 |
| 20260506171551 | 43 | 298 | 7.0 | 14.0 | 0.00 | 0.00 | 0.00 | 51 | 1019.4 |
| 20260506170039 | 42 | 279 | 9.0 | 17.0 | 0.00 | 0.00 | 0.00 | 49 | 1019.4 |
| 20260506164537 | 42 | 325 | 11.0 | 15.0 | 0.00 | 0.00 | 0.00 | 48 | 1019.3 |